Weather History for Menominee, MI

Change the Weather History Date:

Sunday, March 13, 2011

  Actual Average Record
Temperature  
Mean Temperature 30 °F -  
Max Temperature 37 °F 38 °F 61 °F (1990)
Min Temperature 24 °F 21 °F -2 °F (1956)
Degree Days  
Heating Degree Days 34    
Moisture  
Dew Point 19 °F    
Average Humidity 59    
Maximum Humidity 75    
Minimum Humidity 45    
Precipitation  
Precipitation 0.00 in - - ()
Sea Level Pressure  
Sea Level Pressure 30.30 in    
Wind  
Wind Speed 8 mph (North)    
Max Wind Speed 14 mph    
Max Gust Speed 21 mph    
Visibility 10 miles    
Events      
Averages and records for this station are not official NWS values.
T = Trace of Precipitation, MM = Missing Value Source: NWS Daily Summary

Daily Weather History Graph

Daily Weather History Graph

Search for Another Location

Airport:

Trip Planner

Search our weather history database for the weather conditions in past years. The results will help you decide how hot, cold, wet, or windy it might be!

Date:

Astronomy

Mar. 13, 2011 Rise Set
Actual Time 7:07 AM CDT 6:53 PM CDT
Civil Twilight 6:37 AM CDT 7:22 PM CDT
Nautical Twilight 6:03 AM CDT 7:57 PM CDT
Astronomical Twilight 5:29 AM CDT 8:31 PM CDT
Moon 11:51 AM CDT (3/13) 3:56 AM CDT (3/13)
Length of Visible Light 12h 44m
Length of Day
11h 46m
First Quarter, 58% of the Moon is Illuminated
Mar 13
First Quarter
Mar 19
Full
Mar 26
Last Quarter
Apr 3
New
Apr 11
First Quarter

Hourly Weather History & Observations

Time (CDT) Temp. Windchill Dew Point Humidity Pressure Visibility Wind Dir Wind Speed Gust Speed Precip Events Conditions
12:15 AM 32.0 °F 24.2 °F 21.2 °F 64% 30.09 in 10.0 mi NNW 9.2 mph - N/A   Overcast
12:35 AM 30.2 °F 24.3 °F 21.2 °F 69% 30.10 in 10.0 mi NNW 5.8 mph - N/A   Overcast
12:55 AM 32.0 °F 25.6 °F 21.2 °F 64% 30.11 in 10.0 mi NNW 6.9 mph - N/A   Overcast
1:15 AM 32.0 °F 26.4 °F 21.2 °F 64% 30.12 in 10.0 mi NNW 5.8 mph - N/A   Overcast
1:35 AM 32.0 °F 26.4 °F 21.2 °F 64% 30.13 in 10.0 mi NNW 5.8 mph - N/A   Overcast
1:55 AM 30.2 °F 21.9 °F 21.2 °F 69% 30.13 in 10.0 mi NNW 9.2 mph - N/A   Overcast
3:15 AM 30.2 °F 21.9 °F 23.0 °F 75% 30.14 in 10.0 mi NNW 9.2 mph - N/A   Overcast
3:35 AM 30.2 °F 22.6 °F 23.0 °F 75% 30.14 in 10.0 mi NNW 8.1 mph - N/A   Overcast
3:55 AM 32.0 °F 24.2 °F 21.2 °F 64% 30.14 in 10.0 mi NNW 9.2 mph - N/A   Overcast
4:35 AM 32.0 °F 24.8 °F 21.2 °F 64% 30.16 in 10.0 mi NNW 8.1 mph - N/A   Overcast
4:55 AM 32.0 °F 27.5 °F 21.2 °F 64% 30.17 in 10.0 mi NNW 4.6 mph - N/A   Overcast
5:15 AM 32.0 °F 26.4 °F 21.2 °F 64% 30.18 in 10.0 mi NNW 5.8 mph - N/A   Overcast
5:35 AM 32.0 °F 27.5 °F 21.2 °F 64% 30.20 in 10.0 mi NNW 4.6 mph - N/A   Overcast
5:55 AM 30.2 °F 24.3 °F 21.2 °F 69% 30.21 in 10.0 mi NNW 5.8 mph - N/A   Overcast
6:15 AM 30.2 °F 24.3 °F 21.2 °F 69% 30.22 in 10.0 mi NNW 5.8 mph - N/A   Overcast
6:55 AM 30.2 °F 26.7 °F 21.2 °F 69% 30.23 in 10.0 mi NNW 3.5 mph - N/A   Overcast
7:15 AM 30.2 °F 25.4 °F 21.2 °F 69% 30.24 in 10.0 mi NNW 4.6 mph - N/A   Overcast
7:35 AM 30.2 °F 25.4 °F 21.2 °F 69% 30.24 in 10.0 mi NNW 4.6 mph - N/A   Overcast
7:55 AM 30.2 °F 23.4 °F 21.2 °F 69% 30.25 in 10.0 mi NNW 6.9 mph - N/A   Overcast
8:15 AM 32.0 °F 25.6 °F 21.2 °F 64% 30.25 in 10.0 mi North 6.9 mph - N/A   Overcast
8:35 AM 32.0 °F 24.2 °F 21.2 °F 64% 30.27 in 10.0 mi North 9.2 mph - N/A   Overcast
8:55 AM 32.0 °F 24.8 °F 21.2 °F 64% 30.27 in 10.0 mi North 8.1 mph - N/A   Overcast
9:15 AM 32.0 °F 24.2 °F 19.4 °F 60% 30.28 in 10.0 mi NNE 9.2 mph - N/A   Overcast
9:35 AM 33.8 °F 24.3 °F 17.6 °F 52% 30.28 in 10.0 mi North 13.8 mph 20.7 mph N/A   Overcast
9:55 AM 32.0 °F 22.1 °F 17.6 °F 55% 30.29 in 10.0 mi North 13.8 mph 20.7 mph N/A   Overcast
10:15 AM 32.0 °F 22.5 °F 17.6 °F 55% 30.30 in 10.0 mi NNW 12.7 mph - N/A   Overcast
10:35 AM 33.8 °F 25.8 °F 17.6 °F 52% 30.30 in 10.0 mi North 10.4 mph - N/A   Overcast
10:55 AM 33.8 °F 25.3 °F 17.6 °F 52% 30.31 in 10.0 mi North 11.5 mph 18.4 mph N/A   Overcast
11:15 AM 33.8 °F 25.3 °F 19.4 °F 56% 30.32 in 10.0 mi North 11.5 mph 19.6 mph N/A   Mostly Cloudy
11:35 AM 33.8 °F 25.8 °F 17.6 °F 52% 30.32 in 10.0 mi North 10.4 mph - N/A   Scattered Clouds
11:55 AM 35.6 °F 28.6 °F 17.6 °F 48% 30.33 in 10.0 mi North 9.2 mph 17.3 mph N/A   Mostly Cloudy
12:15 PM 35.6 °F 29.2 °F 19.4 °F 52% 30.33 in 10.0 mi North 8.1 mph - N/A   Overcast
12:35 PM 35.6 °F 29.2 °F 17.6 °F 48% 30.34 in 10.0 mi NE 8.1 mph - N/A   Overcast
12:55 PM 35.6 °F 28.0 °F 19.4 °F 52% 30.34 in 10.0 mi NNE 10.4 mph - N/A   Overcast
1:15 PM 35.6 °F 28.0 °F 17.6 °F 48% 30.34 in 10.0 mi NNE 10.4 mph - N/A   Overcast
1:35 PM 35.6 °F 28.0 °F 17.6 °F 48% 30.35 in 10.0 mi NNE 10.4 mph 16.1 mph N/A   Overcast
1:55 PM 35.6 °F 27.5 °F 17.6 °F 48% 30.35 in 10.0 mi North 11.5 mph - N/A   Overcast
2:15 PM 35.6 °F 28.0 °F 17.6 °F 48% 30.35 in 10.0 mi NNE 10.4 mph 17.3 mph N/A   Overcast
2:35 PM 35.6 °F 28.0 °F 17.6 °F 48% 30.36 in 10.0 mi NNE 10.4 mph - N/A   Overcast
2:55 PM 35.6 °F 27.5 °F 19.4 °F 52% 30.36 in 10.0 mi North 11.5 mph - N/A   Overcast
3:15 PM 35.6 °F 28.0 °F 17.6 °F 48% 30.36 in 10.0 mi North 10.4 mph - N/A   Overcast
3:35 PM 35.6 °F 29.2 °F 17.6 °F 48% 30.37 in 10.0 mi North 8.1 mph - N/A   Overcast
3:55 PM 37.4 °F 31.4 °F 17.6 °F 45% 30.37 in 10.0 mi NNW 8.1 mph - N/A   Overcast
4:15 PM 35.6 °F 29.9 °F 17.6 °F 48% 30.38 in 10.0 mi NNW 6.9 mph - N/A   Mostly Cloudy
4:35 PM 37.4 °F 30.8 °F 17.6 °F 45% 30.38 in 10.0 mi NNE 9.2 mph - N/A   Partly Cloudy
4:55 PM 37.4 °F 32.1 °F 17.6 °F 45% 30.39 in 10.0 mi North 6.9 mph - N/A   Clear
5:15 PM 37.4 °F 29.8 °F 17.6 °F 45% 30.40 in 10.0 mi NNE 11.5 mph - N/A   Partly Cloudy
5:35 PM 37.4 °F 31.4 °F 17.6 °F 45% 30.40 in 10.0 mi NE 8.1 mph - N/A   Clear
5:55 PM 33.8 °F 27.0 °F 19.4 °F 56% 30.40 in 10.0 mi East 8.1 mph - N/A   Clear
6:15 PM 32.0 °F 24.8 °F 19.4 °F 60% 30.41 in 10.0 mi East 8.1 mph - N/A   Clear
6:35 PM 32.0 °F 25.6 °F 19.4 °F 60% 30.42 in 10.0 mi East 6.9 mph - N/A   Clear
6:55 PM 30.2 °F 23.4 °F 17.6 °F 60% 30.43 in 10.0 mi East 6.9 mph - N/A   Clear
7:15 PM 28.4 °F 23.3 °F 17.6 °F 64% 30.44 in 10.0 mi East 4.6 mph - N/A   Clear
7:35 PM 28.4 °F 22.2 °F 17.6 °F 64% 30.44 in 10.0 mi ENE 5.8 mph - N/A   Clear
7:55 PM 28.4 °F 21.2 °F 17.6 °F 64% 30.44 in 10.0 mi ENE 6.9 mph - N/A   Clear
8:15 PM 26.6 °F 20.0 °F 17.6 °F 69% 30.44 in 10.0 mi East 5.8 mph - N/A   Clear
8:35 PM 26.6 °F 22.6 °F 17.6 °F 69% 30.44 in 10.0 mi East 3.5 mph - N/A   Clear
8:55 PM 24.8 °F - 17.6 °F 74% 30.44 in 10.0 mi Calm Calm - N/A   Clear
9:15 PM 26.6 °F - 17.6 °F 69% 30.44 in 10.0 mi Calm Calm - N/A   Clear
9:35 PM 26.6 °F 17.5 °F 15.8 °F 64% 30.45 in 10.0 mi ENE 9.2 mph - N/A   Clear
9:55 PM 26.6 °F 17.5 °F 15.8 °F 64% 30.45 in 10.0 mi ENE 9.2 mph - N/A   Clear
10:15 PM 26.6 °F 18.2 °F 15.8 °F 64% 30.45 in 10.0 mi ENE 8.1 mph - N/A   Clear
10:35 PM 24.8 °F 16.9 °F 12.2 °F 59% 30.46 in 10.0 mi East 6.9 mph - N/A   Clear
10:55 PM 23.0 °F 14.7 °F 12.2 °F 63% 30.46 in 10.0 mi East 6.9 mph - N/A   Clear
11:15 PM 23.0 °F 14.7 °F 12.2 °F 63% 30.46 in 10.0 mi ENE 6.9 mph - N/A   Clear
11:35 PM 21.2 °F 12.6 °F 12.2 °F 68% 30.46 in 10.0 mi NE 6.9 mph - N/A   Clear
11:55 PM 21.2 °F 14.9 °F 12.2 °F 68% 30.46 in 10.0 mi NE 4.6 mph - N/A   Clear
12:15 AM 23.0 °F 18.4 °F 14.0 °F 68% 30.47 in 10.0 mi NE 3.5 mph - N/A   Clear
12:35 AM 23.0 °F 17.0 °F 12.2 °F 63% 30.46 in 10.0 mi NNE 4.6 mph - N/A   Clear
12:55 AM 23.0 °F - 12.2 °F 63% 30.47 in 10.0 mi Calm Calm - N/A   Clear